createdAt,value
2019-02-06T00:02:11.298Z,19.10
2019-02-06T00:04:38.217Z,19.10
2019-02-06T00:07:05.137Z,20.20
2019-02-06T00:09:32.132Z,20.57
2019-02-06T00:11:59.095Z,20.70
2019-02-06T00:14:26.081Z,20.13
2019-02-06T00:16:53.121Z,20.53
2019-02-06T00:19:20.342Z,20.17
2019-02-06T00:21:47.254Z,20.37
2019-02-06T00:24:14.165Z,19.53
2019-02-06T00:26:41.157Z,18.47
2019-02-06T00:29:08.152Z,20.63
2019-02-06T00:31:35.152Z,18.67
2019-02-06T00:34:02.058Z,19.30
2019-02-06T00:36:29.179Z,19.07
2019-02-06T00:38:56.553Z,21.33
2019-02-06T00:41:23.452Z,19.47
2019-02-06T00:43:50.432Z,21.00
2019-02-06T00:46:17.802Z,18.57
2019-02-06T00:48:44.787Z,17.87
2019-02-06T00:51:11.670Z,17.50
2019-02-06T00:53:38.581Z,19.23
2019-02-06T00:56:05.674Z,17.83
2019-02-06T00:58:32.589Z,18.20
2019-02-06T01:00:59.505Z,17.83
2019-02-06T01:03:26.471Z,17.83
2019-02-06T01:05:53.442Z,16.53
2019-02-06T01:08:20.347Z,16.27
2019-02-06T01:10:47.229Z,16.70
2019-02-06T01:13:14.176Z,17.23
2019-02-06T01:15:41.316Z,16.30
2019-02-06T01:18:08.245Z,16.10
2019-02-06T01:20:35.149Z,16.90
2019-02-06T01:23:02.085Z,17.67
2019-02-06T01:25:28.967Z,16.50
2019-02-06T01:27:55.908Z,16.60
2019-02-06T01:30:24.463Z,15.73
2019-02-06T01:32:51.420Z,16.80
2019-02-06T01:35:18.439Z,16.53
2019-02-06T01:37:45.683Z,14.90
2019-02-06T01:40:15.342Z,17.20
2019-02-06T01:42:42.270Z,16.63
2019-02-06T01:45:10.361Z,15.40
2019-02-06T01:47:37.311Z,16.20
2019-02-06T01:50:05.621Z,15.70
2019-02-06T01:52:32.858Z,16.80
2019-02-06T01:54:59.792Z,17.00
2019-02-06T01:57:26.731Z,16.20
2019-02-06T01:59:53.629Z,16.50
2019-02-06T02:02:20.655Z,16.40
2019-02-06T02:04:47.616Z,16.67
2019-02-06T02:07:14.528Z,16.60
2019-02-06T02:09:41.446Z,16.80
2019-02-06T02:12:08.660Z,15.80
2019-02-06T02:14:35.837Z,16.00
2019-02-06T02:17:02.848Z,16.57
2019-02-06T02:19:29.778Z,16.07
2019-02-06T02:21:56.686Z,14.80
2019-02-06T02:24:23.614Z,16.80
2019-02-06T02:26:50.510Z,15.87
2019-02-06T02:29:17.421Z,15.47
2019-02-06T02:31:44.437Z,14.90
2019-02-06T02:34:11.347Z,16.27
2019-02-06T02:36:38.241Z,18.03
2019-02-06T02:39:07.378Z,15.80
2019-02-06T02:41:34.271Z,15.30
2019-02-06T02:44:01.180Z,16.23
2019-02-06T02:46:28.134Z,15.80
2019-02-06T02:48:55.550Z,14.70
2019-02-06T02:51:22.541Z,15.83
2019-02-06T02:53:49.468Z,15.23
2019-02-06T02:56:16.482Z,14.67
2019-02-06T02:58:43.443Z,15.47
2019-02-06T03:01:35.634Z,14.33
2019-02-06T03:04:07.426Z,15.07
2019-02-06T03:06:34.332Z,14.57
2019-02-06T03:09:01.358Z,14.80
2019-02-06T03:11:28.248Z,16.50
2019-02-06T03:13:55.189Z,14.90
2019-02-06T03:16:22.264Z,14.97
2019-02-06T03:18:49.518Z,17.37
2019-02-06T03:21:16.640Z,15.30
2019-02-06T03:23:43.608Z,15.90
2019-02-06T03:26:10.594Z,14.83
2019-02-06T03:28:37.573Z,15.37
2019-02-06T03:31:04.508Z,14.80
2019-02-06T03:33:31.454Z,15.23
2019-02-06T03:35:58.417Z,14.37
2019-02-06T03:38:25.360Z,14.20
2019-02-06T03:40:52.337Z,14.47
2019-02-06T03:43:19.277Z,14.30
2019-02-06T03:45:46.234Z,13.67
2019-02-06T03:48:13.156Z,13.93
2019-02-06T03:50:40.123Z,13.30
2019-02-06T03:53:07.050Z,13.20
2019-02-06T03:55:34.010Z,13.50
2019-02-06T03:58:00.944Z,12.50
2019-02-06T04:00:27.919Z,13.30
2019-02-06T04:02:54.865Z,13.33
2019-02-06T04:05:21.848Z,13.10
2019-02-06T04:07:48.781Z,12.40
2019-02-06T04:10:15.792Z,12.03
2019-02-06T04:12:42.717Z,14.10
2019-02-06T04:15:10.508Z,12.40
2019-02-06T04:17:37.427Z,12.50
2019-02-06T04:20:05.349Z,13.77
2019-02-06T04:22:32.296Z,12.13
2019-02-06T04:24:59.249Z,12.43
2019-02-06T04:27:26.166Z,11.23
2019-02-06T04:29:53.121Z,10.90
2019-02-06T04:32:23.258Z,10.60
2019-02-06T04:34:48.876Z,11.43
2019-02-06T04:37:15.867Z,10.57
2019-02-06T04:39:42.799Z,11.10
2019-02-06T04:42:09.763Z,9.73
2019-02-06T04:44:36.684Z,11.17
2019-02-06T04:47:03.845Z,10.30
2019-02-06T04:49:30.779Z,10.60
2019-02-06T04:51:58.044Z,9.07
2019-02-06T04:54:25.060Z,9.30
2019-02-06T04:56:52.012Z,10.27
2019-02-06T04:59:18.958Z,9.43
2019-02-06T05:01:46.133Z,10.57
2019-02-06T05:04:13.065Z,9.33
2019-02-06T05:06:40.143Z,9.00
2019-02-06T05:09:07.405Z,9.07
2019-02-06T05:11:34.812Z,8.50
2019-02-06T05:14:01.785Z,9.13
2019-02-06T05:16:29.332Z,8.67
2019-02-06T05:18:56.275Z,9.70
2019-02-06T05:21:23.259Z,10.23
2019-02-06T05:23:50.260Z,8.30
2019-02-06T05:26:17.225Z,9.27
2019-02-06T05:28:44.170Z,9.10
2019-02-06T05:31:11.517Z,7.50
2019-02-06T05:33:38.430Z,9.40
2019-02-06T05:36:05.447Z,8.50
2019-02-06T05:38:32.400Z,9.60
2019-02-06T05:40:59.336Z,7.90
2019-02-06T05:43:26.283Z,10.13
2019-02-06T05:45:53.227Z,10.00
2019-02-06T05:48:20.155Z,8.63
2019-02-06T05:50:47.466Z,9.50
2019-02-06T05:53:14.478Z,8.50
2019-02-06T05:55:41.401Z,8.87
2019-02-06T05:58:08.367Z,8.67
2019-02-06T06:00:42.029Z,9.87
2019-02-06T06:03:08.991Z,8.33
2019-02-06T06:05:35.917Z,10.10
2019-02-06T06:08:02.871Z,9.37
2019-02-06T06:10:29.790Z,8.27
2019-02-06T06:12:56.764Z,9.40
2019-02-06T06:15:23.727Z,9.20
2019-02-06T06:17:51.107Z,9.07
2019-02-06T06:20:18.081Z,9.43
2019-02-06T06:22:45.638Z,8.70
2019-02-06T06:25:14.148Z,8.63
2019-02-06T06:27:41.094Z,8.50
2019-02-06T06:30:10.425Z,9.00
2019-02-06T06:32:37.349Z,8.90
2019-02-06T06:35:05.155Z,10.03
2019-02-06T06:37:32.101Z,9.87
2019-02-06T06:39:59.040Z,10.70
2019-02-06T06:42:26.034Z,9.83
2019-02-06T06:44:52.968Z,9.50
2019-02-06T06:47:20.326Z,8.90
2019-02-06T06:49:47.272Z,8.60
2019-02-06T06:52:14.243Z,10.13
2019-02-06T06:54:41.171Z,9.83
2019-02-06T06:57:08.435Z,9.57
2019-02-06T06:59:35.440Z,8.97
2019-02-06T07:02:02.458Z,8.50
2019-02-06T07:04:29.423Z,8.67
2019-02-06T07:06:56.538Z,8.03
2019-02-06T07:09:24.233Z,9.20
2019-02-06T07:11:51.175Z,8.00
2019-02-06T07:14:18.186Z,9.67
2019-02-06T07:16:45.183Z,9.47
2019-02-06T07:19:12.157Z,8.13
2019-02-06T07:21:39.090Z,8.07
2019-02-06T07:24:06.346Z,8.00
2019-02-06T07:26:33.351Z,8.80
2019-02-06T07:29:00.277Z,9.00
2019-02-06T07:31:27.219Z,9.60
2019-02-06T07:33:54.196Z,8.70
2019-02-06T07:36:21.233Z,8.80
2019-02-06T07:38:48.201Z,8.70
2019-02-06T07:41:15.189Z,9.10
2019-02-06T07:43:43.562Z,9.60
2019-02-06T07:46:10.523Z,8.80
2019-02-06T07:48:37.635Z,8.27
2019-02-06T07:51:04.669Z,8.90
2019-02-06T07:53:31.674Z,9.47
2019-02-06T07:55:58.612Z,9.80
2019-02-06T07:58:25.609Z,10.67
2019-02-06T08:00:52.553Z,9.50
2019-02-06T08:03:19.740Z,8.77
2019-02-06T08:05:46.663Z,9.33
2019-02-06T08:08:13.664Z,9.00
2019-02-06T08:10:40.637Z,9.10
2019-02-06T08:13:07.784Z,8.90
2019-02-06T08:15:34.793Z,8.87
2019-02-06T08:18:01.786Z,8.50
2019-02-06T08:20:28.938Z,9.03
2019-02-06T08:22:55.873Z,9.40
2019-02-06T08:25:22.880Z,9.73
2019-02-06T08:27:49.811Z,8.30
2019-02-06T08:30:19.849Z,8.87
2019-02-06T08:32:46.801Z,8.50
2019-02-06T08:35:13.795Z,8.80
2019-02-06T08:37:40.790Z,8.10
2019-02-06T08:40:09.750Z,8.20
2019-02-06T08:42:36.795Z,8.23
2019-02-06T08:45:04.887Z,9.43
2019-02-06T08:47:31.848Z,9.37
2019-02-06T08:49:58.802Z,8.27
2019-02-06T08:52:25.780Z,8.53
2019-02-06T08:54:52.699Z,9.10
2019-02-06T08:57:19.939Z,8.03
2019-02-06T08:59:47.024Z,8.30
2019-02-06T09:02:13.962Z,8.83
2019-02-06T09:04:40.949Z,8.10
2019-02-06T09:07:07.934Z,7.63
2019-02-06T09:09:34.871Z,8.77
2019-02-06T09:12:01.820Z,7.47
2019-02-06T09:14:28.771Z,6.83
2019-02-06T09:16:56.021Z,8.17
2019-02-06T09:19:22.951Z,6.97
2019-02-06T09:21:49.901Z,7.83
2019-02-06T09:24:16.812Z,7.60
2019-02-06T09:26:43.762Z,7.93
2019-02-06T09:29:10.670Z,7.80
2019-02-06T09:31:37.622Z,7.20
2019-02-06T09:34:04.610Z,7.67
2019-02-06T09:36:32.061Z,6.87
2019-02-06T09:39:10.848Z,8.27
2019-02-06T09:41:27.834Z,7.20
2019-02-06T09:43:54.785Z,6.53
2019-02-06T09:46:21.716Z,7.37
2019-02-06T09:48:48.694Z,7.60
2019-02-06T09:51:15.640Z,6.80
2019-02-06T09:53:42.657Z,7.70
2019-02-06T09:56:09.704Z,6.60
2019-02-06T09:58:36.659Z,7.73
2019-02-06T10:01:03.587Z,8.17
2019-02-06T10:03:30.548Z,8.90
2019-02-06T10:05:57.516Z,9.00
2019-02-06T10:08:24.470Z,7.00
2019-02-06T10:10:51.414Z,6.97
2019-02-06T10:13:18.539Z,6.77
2019-02-06T10:15:45.474Z,7.00
2019-02-06T10:18:12.463Z,6.40
2019-02-06T10:20:48.329Z,6.33
2019-02-06T10:23:15.481Z,6.53
2019-02-06T10:25:42.672Z,6.00
2019-02-06T10:28:09.769Z,5.73
2019-02-06T10:30:40.199Z,6.07
2019-02-06T10:33:07.278Z,5.93
2019-02-06T10:35:34.201Z,6.40
2019-02-06T10:38:01.159Z,5.80
2019-02-06T10:40:28.474Z,5.60
2019-02-06T10:42:55.457Z,5.80
2019-02-06T10:45:22.455Z,6.03
2019-02-06T10:47:49.379Z,4.93
2019-02-06T10:50:18.767Z,5.00
2019-02-06T10:52:48.221Z,5.23
2019-02-06T10:55:15.294Z,5.00
2019-02-06T10:57:42.265Z,6.03
2019-02-06T11:00:13.990Z,5.60
2019-02-06T11:02:41.039Z,6.00
2019-02-06T11:05:08.639Z,6.47
2019-02-06T11:07:35.697Z,5.47
2019-02-06T11:10:03.261Z,5.70
2019-02-06T11:12:30.357Z,5.30
2019-02-06T11:14:57.332Z,4.23
2019-02-06T11:17:24.261Z,5.20
2019-02-06T11:19:51.232Z,4.77
2019-02-06T11:22:18.182Z,5.30
2019-02-06T11:24:45.662Z,5.00
2019-02-06T11:27:12.664Z,4.73
2019-02-06T11:29:39.648Z,4.60
2019-02-06T11:32:06.594Z,5.00
2019-02-06T11:34:33.547Z,5.43
2019-02-06T11:37:00.606Z,4.30
2019-02-06T11:39:27.594Z,4.07
2019-02-06T11:41:54.547Z,4.50
2019-02-06T11:44:21.489Z,4.37
2019-02-06T11:46:48.468Z,4.77
2019-02-06T11:49:16.541Z,4.30
2019-02-06T11:51:43.476Z,4.73
2019-02-06T11:54:10.437Z,4.23
2019-02-06T11:56:37.370Z,4.77
2019-02-06T11:59:04.558Z,3.83
2019-02-06T12:01:36.249Z,4.50
2019-02-06T12:04:03.659Z,4.60
2019-02-06T12:06:30.965Z,4.20
2019-02-06T12:08:57.985Z,3.97
2019-02-06T12:11:25.184Z,4.40
2019-02-06T12:13:52.173Z,4.17
2019-02-06T12:16:19.432Z,4.17
2019-02-06T12:18:46.563Z,4.20
2019-02-06T12:21:13.627Z,5.20
2019-02-06T12:23:40.690Z,3.90
2019-02-06T12:26:07.921Z,3.77
2019-02-06T12:28:35.358Z,3.97
2019-02-06T12:31:02.737Z,4.67
2019-02-06T12:33:29.870Z,4.83
2019-02-06T12:35:58.140Z,4.50
2019-02-06T12:38:25.462Z,4.60
2019-02-06T12:40:52.458Z,4.40
2019-02-06T12:43:19.386Z,4.47
2019-02-06T12:45:46.775Z,4.30
2019-02-06T12:48:14.034Z,3.97
2019-02-06T12:50:42.120Z,4.20
2019-02-06T12:53:09.079Z,4.27
2019-02-06T12:55:37.218Z,3.87
2019-02-06T12:58:06.660Z,4.07
2019-02-06T13:00:34.354Z,4.47
2019-02-06T13:03:01.429Z,4.67
2019-02-06T13:05:30.008Z,4.37
2019-02-06T13:07:57.763Z,3.80
2019-02-06T13:10:33.420Z,3.87
2019-02-06T13:12:54.536Z,4.00
2019-02-06T13:15:21.540Z,3.93
2019-02-06T13:17:49.150Z,4.30
2019-02-06T13:20:21.011Z,4.23
2019-02-06T13:22:48.256Z,4.90
2019-02-06T13:25:15.558Z,3.97
2019-02-06T13:27:42.675Z,4.57
2019-02-06T13:30:15.645Z,4.40
2019-02-06T13:32:42.904Z,4.07
2019-02-06T13:35:11.492Z,4.37
2019-02-06T13:37:40.786Z,3.63
2019-02-06T13:40:11.433Z,3.93
2019-02-06T13:42:38.904Z,4.13
2019-02-06T13:45:09.506Z,4.00
2019-02-06T13:47:36.536Z,3.90
2019-02-06T13:50:05.964Z,3.60
2019-02-06T13:52:32.963Z,3.93
2019-02-06T13:54:59.986Z,4.23
2019-02-06T13:57:33.887Z,3.80
2019-02-06T13:59:55.858Z,4.47
2019-02-06T14:02:23.328Z,4.70
2019-02-06T14:04:50.333Z,4.70
2019-02-06T14:07:17.761Z,4.10
2019-02-06T14:09:44.722Z,4.70
2019-02-06T14:12:13.528Z,4.10
2019-02-06T14:14:40.676Z,4.17
2019-02-06T14:17:07.623Z,4.40
2019-02-06T14:19:34.578Z,3.80
2019-02-06T14:22:01.648Z,4.53
2019-02-06T14:24:53.105Z,4.13
2019-02-06T14:27:51.507Z,4.00
2019-02-06T14:30:45.363Z,4.80
2019-02-06T14:33:42.025Z,4.60
2019-02-06T14:36:27.505Z,4.77
2019-02-06T14:39:20.189Z,5.17
2019-02-06T14:42:28.132Z,5.00
2019-02-06T14:45:37.621Z,4.90
2019-02-06T14:48:18.078Z,3.80
2019-02-06T14:51:00.637Z,4.00
2019-02-06T14:54:05.387Z,4.30
2019-02-06T14:57:18.346Z,5.80
2019-02-06T15:00:42.505Z,5.47
2019-02-06T15:03:28.837Z,5.17
2019-02-06T15:06:22.558Z,4.40
2019-02-06T15:09:11.689Z,4.23
2019-02-06T15:12:10.787Z,4.00
2019-02-06T15:15:28.941Z,4.07
2019-02-06T15:18:52.797Z,4.50
2019-02-06T15:22:19.761Z,5.23
2019-02-06T15:25:18.195Z,5.10
2019-02-06T15:28:07.438Z,5.60
2019-02-06T15:31:16.542Z,6.07
2019-02-06T15:33:54.345Z,5.50
2019-02-06T15:37:05.994Z,5.60
2019-02-06T15:40:16.679Z,4.60
2019-02-06T15:43:31.319Z,5.70
2019-02-06T15:46:33.677Z,5.83
2019-02-06T15:49:27.381Z,5.93
2019-02-06T15:52:32.423Z,5.57
2019-02-06T15:55:53.093Z,6.37
2019-02-06T15:58:44.168Z,5.50
2019-02-06T16:01:57.616Z,4.43
2019-02-06T16:05:43.632Z,5.10
2019-02-06T16:08:34.825Z,5.30
2019-02-06T16:11:15.264Z,4.63
2019-02-06T16:14:21.080Z,5.17
2019-02-06T16:17:28.831Z,4.73
2019-02-06T16:20:29.400Z,4.90
2019-02-06T16:23:26.526Z,4.27
2019-02-06T16:26:47.229Z,4.80
2019-02-06T16:29:47.677Z,4.80
2019-02-06T16:32:48.534Z,7.00
2019-02-06T16:36:02.784Z,6.50
2019-02-06T16:38:51.433Z,6.80
2019-02-06T16:41:58.519Z,7.90
2019-02-06T16:44:58.841Z,7.80
2019-02-06T16:47:56.983Z,7.90
2019-02-06T16:50:44.600Z,13.27
2019-02-06T16:54:14.707Z,9.33
2019-02-06T16:57:17.629Z,12.63
2019-02-06T17:00:18.806Z,7.90
2019-02-06T17:03:04.532Z,7.97
2019-02-06T17:05:56.504Z,7.17
2019-02-06T17:09:17.457Z,4.60
2019-02-06T17:12:24.944Z,4.10
2019-02-06T17:15:38.413Z,3.57
2019-02-06T17:18:25.948Z,4.40
2019-02-06T17:21:15.355Z,5.20
2019-02-06T17:24:19.906Z,5.93
2019-02-06T17:26:58.605Z,5.03
2019-02-06T17:29:58.519Z,5.10
2019-02-06T17:33:13.774Z,4.87
2019-02-06T17:36:06.001Z,4.50
2019-02-06T17:38:56.441Z,5.13
2019-02-06T17:41:57.792Z,4.77
2019-02-06T17:45:06.610Z,4.20
2019-02-06T17:48:21.371Z,5.43
2019-02-06T17:51:29.258Z,5.10
2019-02-06T17:54:08.353Z,5.23
2019-02-06T17:56:35.765Z,6.10
2019-02-06T17:59:04.054Z,4.60
2019-02-06T18:01:37.171Z,5.00
2019-02-06T18:04:12.473Z,4.50
2019-02-06T18:06:39.466Z,5.50
2019-02-06T18:09:13.514Z,4.30
2019-02-06T18:11:40.490Z,5.50
2019-02-06T18:14:07.425Z,5.80
2019-02-06T18:16:34.397Z,4.00
2019-02-06T18:19:01.333Z,4.40
2019-02-06T18:21:30.117Z,4.40
2019-02-06T18:23:57.056Z,4.70
2019-02-06T18:26:24.313Z,5.70
2019-02-06T18:28:51.472Z,4.47
2019-02-06T18:31:18.616Z,5.17
2019-02-06T18:33:45.555Z,4.70
2019-02-06T18:36:12.541Z,4.90
2019-02-06T18:38:46.675Z,4.67
2019-02-06T18:41:09.344Z,5.50
2019-02-06T18:43:36.415Z,4.40
2019-02-06T18:46:03.797Z,4.47
2019-02-06T18:48:31.912Z,6.20
2019-02-06T18:50:58.879Z,7.17
2019-02-06T18:53:25.830Z,6.90
2019-02-06T18:55:52.831Z,7.60
2019-02-06T18:58:19.802Z,7.40
2019-02-06T19:00:46.794Z,8.03
2019-02-06T19:03:17.436Z,9.73
2019-02-06T19:05:44.724Z,10.60
2019-02-06T19:08:11.804Z,7.37
2019-02-06T19:10:38.842Z,8.40
2019-02-06T19:13:06.356Z,7.90
2019-02-06T19:15:33.311Z,8.10
2019-02-06T19:18:00.284Z,9.40
2019-02-06T19:20:27.287Z,9.27
2019-02-06T19:22:54.240Z,8.13
2019-02-06T19:25:23.858Z,9.17
2019-02-06T19:27:50.056Z,7.50
2019-02-06T19:30:22.692Z,8.43
2019-02-06T19:32:49.958Z,9.10
2019-02-06T19:35:16.892Z,9.70
2019-02-06T19:37:43.874Z,10.70
2019-02-06T19:40:10.816Z,8.23
2019-02-06T19:42:37.792Z,10.10
2019-02-06T19:45:05.034Z,10.73
2019-02-06T19:47:32.195Z,11.40
2019-02-06T19:49:59.395Z,10.73
2019-02-06T19:52:26.363Z,9.20
2019-02-06T19:54:53.720Z,8.40
2019-02-06T19:57:20.708Z,6.00
2019-02-06T19:59:47.725Z,7.20
2019-02-06T20:02:14.697Z,6.60
2019-02-06T20:04:41.747Z,6.03
2019-02-06T20:07:08.692Z,5.40
2019-02-06T20:09:35.653Z,6.33
2019-02-06T20:12:02.569Z,5.77
2019-02-06T20:14:29.529Z,5.80
2019-02-06T20:16:56.448Z,7.57
2019-02-06T20:19:23.703Z,5.60
2019-02-06T20:21:50.633Z,6.87
2019-02-06T20:24:17.607Z,6.77
2019-02-06T20:26:44.538Z,6.80
2019-02-06T20:29:11.498Z,6.20
2019-02-06T20:31:38.419Z,6.73
2019-02-06T20:34:05.400Z,6.00
2019-02-06T20:36:32.321Z,5.10
2019-02-06T20:38:59.285Z,5.60
2019-02-06T20:41:26.339Z,5.00
2019-02-06T20:43:53.304Z,5.70
2019-02-06T20:46:20.231Z,5.80
2019-02-06T20:48:47.180Z,5.70
2019-02-06T20:51:14.122Z,4.90
2019-02-06T20:53:41.068Z,4.90
2019-02-06T20:56:08.002Z,4.90
2019-02-06T20:58:34.958Z,4.90
2019-02-06T21:01:02.098Z,5.17
2019-02-06T21:03:29.371Z,5.43
2019-02-06T21:05:56.294Z,5.33
2019-02-06T21:08:23.284Z,5.70
2019-02-06T21:10:50.217Z,5.33
2019-02-06T21:13:18.965Z,5.30
2019-02-06T21:15:46.409Z,5.73
2019-02-06T21:18:13.334Z,6.03
2019-02-06T21:20:40.669Z,4.83
2019-02-06T21:23:07.609Z,5.30
2019-02-06T21:25:34.596Z,5.10
2019-02-06T21:28:01.542Z,5.13
2019-02-06T21:30:30.743Z,5.33
2019-02-06T21:32:57.774Z,4.40
2019-02-06T21:35:24.972Z,5.57
2019-02-06T21:37:51.894Z,4.87
2019-02-06T21:40:22.857Z,5.13
2019-02-06T21:42:49.896Z,4.77
2019-02-06T21:45:16.964Z,5.60
2019-02-06T21:47:44.204Z,5.10
2019-02-06T21:50:12.963Z,5.00
2019-02-06T21:52:39.897Z,4.77
2019-02-06T21:55:08.473Z,5.13
2019-02-06T21:57:35.510Z,4.77
2019-02-06T22:00:04.284Z,4.80
2019-02-06T22:02:31.198Z,5.27
2019-02-06T22:04:58.160Z,5.00
2019-02-06T22:07:25.097Z,4.77
2019-02-06T22:09:52.048Z,4.87
2019-02-06T22:12:19.068Z,5.10
2019-02-06T22:14:46.031Z,5.17
2019-02-06T22:17:12.996Z,5.00
2019-02-06T22:19:39.997Z,5.57
2019-02-06T22:22:06.923Z,4.60
2019-02-06T22:24:33.906Z,6.10
2019-02-06T22:27:00.846Z,4.83
2019-02-06T22:29:27.834Z,4.93
2019-02-06T22:31:55.183Z,5.07
2019-02-06T22:34:22.189Z,5.47
2019-02-06T22:36:49.140Z,5.40
2019-02-06T22:39:16.118Z,4.70
2019-02-06T22:41:43.103Z,5.27
2019-02-06T22:44:10.050Z,5.00
2019-02-06T22:46:37.015Z,5.27
2019-02-06T22:49:04.512Z,5.73
2019-02-06T22:51:31.668Z,5.00
2019-02-06T22:53:58.595Z,5.70
2019-02-06T22:56:25.570Z,7.00
2019-02-06T22:58:52.488Z,6.13
2019-02-06T23:01:32.416Z,5.70
2019-02-06T23:03:59.369Z,6.63
2019-02-06T23:06:26.424Z,5.70
2019-02-06T23:08:53.436Z,5.67
2019-02-06T23:11:20.407Z,5.30
2019-02-06T23:13:47.351Z,5.67
2019-02-06T23:16:14.327Z,6.33
2019-02-06T23:18:41.264Z,5.80
2019-02-06T23:21:08.225Z,6.43
2019-02-06T23:23:35.553Z,6.30
2019-02-06T23:26:02.623Z,5.87
2019-02-06T23:28:29.545Z,6.30
2019-02-06T23:30:56.512Z,5.67
2019-02-06T23:33:23.434Z,6.33
2019-02-06T23:35:50.395Z,5.53
2019-02-06T23:38:17.325Z,5.90
2019-02-06T23:40:44.581Z,5.30
2019-02-06T23:43:11.503Z,6.43
2019-02-06T23:45:38.505Z,5.57
2019-02-06T23:48:05.545Z,6.40
2019-02-06T23:50:32.481Z,6.13
2019-02-06T23:52:59.449Z,6.57
2019-02-06T23:55:26.372Z,6.03
2019-02-06T23:57:53.346Z,5.60
